sensor_id;sensor_type;location;lat;lon;timestamp;P1;durP1;ratioP1;P2;durP2;ratioP2
4377;SDS011;2203;53.686;9.994;2022-12-18T00:00:30;26.10;;;11.10;;
4377;SDS011;2203;53.686;9.994;2022-12-18T00:02:55;27.53;;;12.40;;
4377;SDS011;2203;53.686;9.994;2022-12-18T00:05:21;28.37;;;11.80;;
4377;SDS011;2203;53.686;9.994;2022-12-18T00:07:46;33.87;;;11.63;;
4377;SDS011;2203;53.686;9.994;2022-12-18T00:10:12;23.57;;;11.17;;
4377;SDS011;2203;53.686;9.994;2022-12-18T00:12:37;25.20;;;12.37;;
4377;SDS011;2203;53.686;9.994;2022-12-18T00:15:03;21.87;;;10.83;;
4377;SDS011;2203;53.686;9.994;2022-12-18T00:17:28;27.97;;;12.40;;
4377;SDS011;2203;53.686;9.994;2022-12-18T00:19:54;26.87;;;11.47;;
4377;SDS011;2203;53.686;9.994;2022-12-18T00:22:19;26.00;;;11.10;;
4377;SDS011;2203;53.686;9.994;2022-12-18T00:24:45;24.13;;;11.30;;
4377;SDS011;2203;53.686;9.994;2022-12-18T00:27:10;26.97;;;11.40;;
4377;SDS011;2203;53.686;9.994;2022-12-18T00:29:35;31.70;;;11.80;;
4377;SDS011;2203;53.686;9.994;2022-12-18T00:32:01;24.43;;;11.70;;
4377;SDS011;2203;53.686;9.994;2022-12-18T00:34:26;27.37;;;11.53;;
4377;SDS011;2203;53.686;9.994;2022-12-18T00:36:51;27.73;;;10.33;;
4377;SDS011;2203;53.686;9.994;2022-12-18T00:39:17;31.20;;;12.30;;
4377;SDS011;2203;53.686;9.994;2022-12-18T00:41:42;21.67;;;11.57;;
4377;SDS011;2203;53.686;9.994;2022-12-18T00:44:26;28.07;;;11.40;;
4377;SDS011;2203;53.686;9.994;2022-12-18T00:46:51;24.23;;;10.40;;
4377;SDS011;2203;53.686;9.994;2022-12-18T00:49:17;21.20;;;10.80;;
4377;SDS011;2203;53.686;9.994;2022-12-18T00:51:43;26.10;;;11.43;;
4377;SDS011;2203;53.686;9.994;2022-12-18T00:54:09;22.67;;;10.20;;
4377;SDS011;2203;53.686;9.994;2022-12-18T00:56:35;26.27;;;11.53;;
4377;SDS011;2203;53.686;9.994;2022-12-18T00:59:02;22.73;;;11.37;;
4377;SDS011;2203;53.686;9.994;2022-12-18T01:01:27;26.70;;;12.00;;
4377;SDS011;2203;53.686;9.994;2022-12-18T01:03:52;30.27;;;12.17;;
4377;SDS011;2203;53.686;9.994;2022-12-18T01:06:18;24.63;;;10.47;;
4377;SDS011;2203;53.686;9.994;2022-12-18T01:08:43;27.73;;;12.03;;
4377;SDS011;2203;53.686;9.994;2022-12-18T01:11:10;28.50;;;13.27;;
4377;SDS011;2203;53.686;9.994;2022-12-18T01:13:38;23.27;;;11.33;;
4377;SDS011;2203;53.686;9.994;2022-12-18T01:16:07;25.90;;;11.10;;
4377;SDS011;2203;53.686;9.994;2022-12-18T01:18:32;23.70;;;12.67;;
4377;SDS011;2203;53.686;9.994;2022-12-18T01:20:58;19.97;;;10.87;;
4377;SDS011;2203;53.686;9.994;2022-12-18T01:23:26;26.50;;;11.73;;
4377;SDS011;2203;53.686;9.994;2022-12-18T01:25:52;26.17;;;11.23;;
4377;SDS011;2203;53.686;9.994;2022-12-18T01:28:17;27.40;;;10.17;;
4377;SDS011;2203;53.686;9.994;2022-12-18T01:30:42;26.40;;;10.00;;
4377;SDS011;2203;53.686;9.994;2022-12-18T01:33:11;21.47;;;11.33;;
4377;SDS011;2203;53.686;9.994;2022-12-18T01:35:43;24.70;;;11.10;;
4377;SDS011;2203;53.686;9.994;2022-12-18T01:38:08;20.70;;;10.03;;
4377;SDS011;2203;53.686;9.994;2022-12-18T01:40:34;23.67;;;10.97;;
4377;SDS011;2203;53.686;9.994;2022-12-18T01:42:59;24.33;;;9.87;;
4377;SDS011;2203;53.686;9.994;2022-12-18T01:45:26;25.30;;;10.87;;
4377;SDS011;2203;53.686;9.994;2022-12-18T01:48:02;22.40;;;11.77;;
4377;SDS011;2203;53.686;9.994;2022-12-18T01:50:30;34.80;;;12.83;;
4377;SDS011;2203;53.686;9.994;2022-12-18T01:55:43;20.13;;;10.20;;
4377;SDS011;2203;53.686;9.994;2022-12-18T01:58:19;23.30;;;11.13;;
4377;SDS011;2203;53.686;9.994;2022-12-18T02:00:48;19.50;;;9.80;;
4377;SDS011;2203;53.686;9.994;2022-12-18T02:03:13;24.87;;;10.73;;
4377;SDS011;2203;53.686;9.994;2022-12-18T02:05:46;24.93;;;11.13;;
4377;SDS011;2203;53.686;9.994;2022-12-18T02:08:48;17.50;;;9.77;;
4377;SDS011;2203;53.686;9.994;2022-12-18T02:13:54;23.07;;;9.70;;
4377;SDS011;2203;53.686;9.994;2022-12-18T02:18:55;25.27;;;10.80;;
4377;SDS011;2203;53.686;9.994;2022-12-18T02:26:50;22.40;;;10.40;;
4377;SDS011;2203;53.686;9.994;2022-12-18T02:29:18;18.37;;;9.37;;
4377;SDS011;2203;53.686;9.994;2022-12-18T02:31:49;17.80;;;9.13;;
4377;SDS011;2203;53.686;9.994;2022-12-18T02:34:17;19.20;;;9.33;;
4377;SDS011;2203;53.686;9.994;2022-12-18T02:36:43;18.63;;;9.30;;
4377;SDS011;2203;53.686;9.994;2022-12-18T02:39:10;24.40;;;11.00;;
4377;SDS011;2203;53.686;9.994;2022-12-18T02:41:36;19.80;;;9.70;;
4377;SDS011;2203;53.686;9.994;2022-12-18T02:44:06;21.10;;;10.33;;
4377;SDS011;2203;53.686;9.994;2022-12-18T02:46:35;20.13;;;9.40;;
4377;SDS011;2203;53.686;9.994;2022-12-18T02:49:12;22.17;;;9.20;;
4377;SDS011;2203;53.686;9.994;2022-12-18T02:51:47;21.87;;;9.90;;
4377;SDS011;2203;53.686;9.994;2022-12-18T02:54:59;20.70;;;9.47;;
4377;SDS011;2203;53.686;9.994;2022-12-18T02:57:13;23.23;;;10.30;;
4377;SDS011;2203;53.686;9.994;2022-12-18T02:59:49;20.03;;;9.40;;
4377;SDS011;2203;53.686;9.994;2022-12-18T03:02:23;21.63;;;9.83;;
4377;SDS011;2203;53.686;9.994;2022-12-18T03:04:59;19.57;;;9.20;;
4377;SDS011;2203;53.686;9.994;2022-12-18T03:07:37;19.67;;;9.57;;
4377;SDS011;2203;53.686;9.994;2022-12-18T03:10:06;24.67;;;10.57;;
4377;SDS011;2203;53.686;9.994;2022-12-18T03:12:35;19.83;;;9.90;;
4377;SDS011;2203;53.686;9.994;2022-12-18T03:15:10;25.33;;;9.77;;
4377;SDS011;2203;53.686;9.994;2022-12-18T03:17:44;16.23;;;8.77;;
4377;SDS011;2203;53.686;9.994;2022-12-18T03:20:16;17.73;;;8.40;;
4377;SDS011;2203;53.686;9.994;2022-12-18T03:22:44;23.00;;;10.67;;
4377;SDS011;2203;53.686;9.994;2022-12-18T03:25:12;19.03;;;9.23;;
4377;SDS011;2203;53.686;9.994;2022-12-18T03:27:40;28.50;;;9.40;;
4377;SDS011;2203;53.686;9.994;2022-12-18T03:30:09;23.43;;;8.90;;
4377;SDS011;2203;53.686;9.994;2022-12-18T03:35:35;17.50;;;9.60;;
4377;SDS011;2203;53.686;9.994;2022-12-18T03:38:04;18.43;;;9.93;;
4377;SDS011;2203;53.686;9.994;2022-12-18T03:40:41;20.43;;;9.70;;
4377;SDS011;2203;53.686;9.994;2022-12-18T03:43:27;22.43;;;9.10;;
4377;SDS011;2203;53.686;9.994;2022-12-18T03:46:06;24.47;;;10.20;;
4377;SDS011;2203;53.686;9.994;2022-12-18T03:48:56;18.43;;;9.00;;
4377;SDS011;2203;53.686;9.994;2022-12-18T03:51:29;22.03;;;9.57;;
4377;SDS011;2203;53.686;9.994;2022-12-18T03:54:02;18.43;;;8.80;;
4377;SDS011;2203;53.686;9.994;2022-12-18T03:56:29;29.07;;;9.70;;
4377;SDS011;2203;53.686;9.994;2022-12-18T03:58:57;18.33;;;9.63;;
4377;SDS011;2203;53.686;9.994;2022-12-18T04:01:25;20.30;;;9.40;;
4377;SDS011;2203;53.686;9.994;2022-12-18T04:03:56;19.67;;;8.80;;
4377;SDS011;2203;53.686;9.994;2022-12-18T04:06:23;21.27;;;10.13;;
4377;SDS011;2203;53.686;9.994;2022-12-18T04:08:49;22.23;;;10.50;;
4377;SDS011;2203;53.686;9.994;2022-12-18T04:11:15;16.53;;;8.70;;
4377;SDS011;2203;53.686;9.994;2022-12-18T04:13:42;15.87;;;8.93;;
4377;SDS011;2203;53.686;9.994;2022-12-18T04:16:07;21.40;;;9.07;;
4377;SDS011;2203;53.686;9.994;2022-12-18T04:18:34;22.00;;;9.63;;
4377;SDS011;2203;53.686;9.994;2022-12-18T04:21:01;17.07;;;8.60;;
4377;SDS011;2203;53.686;9.994;2022-12-18T04:23:27;21.33;;;8.77;;
4377;SDS011;2203;53.686;9.994;2022-12-18T04:25:53;17.77;;;9.43;;
4377;SDS011;2203;53.686;9.994;2022-12-18T04:28:19;14.93;;;8.50;;
4377;SDS011;2203;53.686;9.994;2022-12-18T04:30:44;18.53;;;8.67;;
4377;SDS011;2203;53.686;9.994;2022-12-18T04:33:11;17.93;;;8.80;;
4377;SDS011;2203;53.686;9.994;2022-12-18T04:35:37;14.83;;;7.47;;
4377;SDS011;2203;53.686;9.994;2022-12-18T04:38:02;16.60;;;8.07;;
4377;SDS011;2203;53.686;9.994;2022-12-18T04:40:28;19.47;;;8.43;;
4377;SDS011;2203;53.686;9.994;2022-12-18T04:42:53;14.20;;;8.13;;
4377;SDS011;2203;53.686;9.994;2022-12-18T04:45:18;21.10;;;9.00;;
4377;SDS011;2203;53.686;9.994;2022-12-18T04:47:44;23.13;;;7.83;;
4377;SDS011;2203;53.686;9.994;2022-12-18T04:50:09;18.70;;;8.10;;
4377;SDS011;2203;53.686;9.994;2022-12-18T04:52:35;20.83;;;8.10;;
4377;SDS011;2203;53.686;9.994;2022-12-18T04:55:00;13.20;;;7.90;;
4377;SDS011;2203;53.686;9.994;2022-12-18T04:57:26;14.83;;;7.47;;
4377;SDS011;2203;53.686;9.994;2022-12-18T04:59:51;12.17;;;7.53;;
4377;SDS011;2203;53.686;9.994;2022-12-18T05:02:17;19.57;;;7.70;;
4377;SDS011;2203;53.686;9.994;2022-12-18T05:04:42;15.27;;;7.90;;
4377;SDS011;2203;53.686;9.994;2022-12-18T05:07:08;14.40;;;8.07;;
4377;SDS011;2203;53.686;9.994;2022-12-18T05:09:33;12.20;;;7.67;;
4377;SDS011;2203;53.686;9.994;2022-12-18T05:11:58;23.03;;;8.10;;
4377;SDS011;2203;53.686;9.994;2022-12-18T05:14:24;16.53;;;8.30;;
4377;SDS011;2203;53.686;9.994;2022-12-18T05:16:49;17.60;;;8.63;;
4377;SDS011;2203;53.686;9.994;2022-12-18T05:19:14;15.00;;;7.17;;
4377;SDS011;2203;53.686;9.994;2022-12-18T05:21:40;42.47;;;11.50;;
4377;SDS011;2203;53.686;9.994;2022-12-18T05:24:05;20.20;;;8.37;;
4377;SDS011;2203;53.686;9.994;2022-12-18T05:26:31;16.73;;;8.60;;
4377;SDS011;2203;53.686;9.994;2022-12-18T05:28:56;19.17;;;8.50;;
4377;SDS011;2203;53.686;9.994;2022-12-18T05:31:22;20.70;;;9.23;;
4377;SDS011;2203;53.686;9.994;2022-12-18T05:33:47;14.57;;;7.80;;
4377;SDS011;2203;53.686;9.994;2022-12-18T05:36:13;18.33;;;8.40;;
4377;SDS011;2203;53.686;9.994;2022-12-18T05:38:38;22.10;;;9.50;;
4377;SDS011;2203;53.686;9.994;2022-12-18T05:41:04;15.10;;;7.80;;
4377;SDS011;2203;53.686;9.994;2022-12-18T05:43:30;21.07;;;8.90;;
4377;SDS011;2203;53.686;9.994;2022-12-18T05:45:56;13.37;;;7.87;;
4377;SDS011;2203;53.686;9.994;2022-12-18T05:48:22;19.43;;;8.10;;
4377;SDS011;2203;53.686;9.994;2022-12-18T05:50:48;17.20;;;8.27;;
4377;SDS011;2203;53.686;9.994;2022-12-18T05:53:16;15.57;;;7.73;;
4377;SDS011;2203;53.686;9.994;2022-12-18T05:55:43;15.17;;;7.70;;
4377;SDS011;2203;53.686;9.994;2022-12-18T05:58:09;14.60;;;8.10;;
4377;SDS011;2203;53.686;9.994;2022-12-18T06:00:36;14.53;;;8.03;;
4377;SDS011;2203;53.686;9.994;2022-12-18T06:03:07;16.33;;;8.20;;
4377;SDS011;2203;53.686;9.994;2022-12-18T06:05:41;16.50;;;8.60;;
4377;SDS011;2203;53.686;9.994;2022-12-18T06:08:07;19.00;;;8.53;;
4377;SDS011;2203;53.686;9.994;2022-12-18T06:10:33;17.37;;;8.97;;
4377;SDS011;2203;53.686;9.994;2022-12-18T06:12:58;20.53;;;8.83;;
4377;SDS011;2203;53.686;9.994;2022-12-18T06:15:24;19.00;;;7.73;;
4377;SDS011;2203;53.686;9.994;2022-12-18T06:17:49;16.13;;;8.13;;
4377;SDS011;2203;53.686;9.994;2022-12-18T06:20:15;17.23;;;8.20;;
4377;SDS011;2203;53.686;9.994;2022-12-18T06:22:40;25.50;;;8.27;;
4377;SDS011;2203;53.686;9.994;2022-12-18T06:25:06;20.60;;;9.23;;
4377;SDS011;2203;53.686;9.994;2022-12-18T06:27:32;20.90;;;9.00;;
4377;SDS011;2203;53.686;9.994;2022-12-18T06:29:58;19.27;;;9.83;;
4377;SDS011;2203;53.686;9.994;2022-12-18T06:32:24;22.53;;;8.37;;
4377;SDS011;2203;53.686;9.994;2022-12-18T06:34:49;18.70;;;8.97;;
4377;SDS011;2203;53.686;9.994;2022-12-18T06:37:15;18.53;;;8.10;;
4377;SDS011;2203;53.686;9.994;2022-12-18T06:39:40;17.33;;;8.20;;
4377;SDS011;2203;53.686;9.994;2022-12-18T06:42:05;15.60;;;8.20;;
4377;SDS011;2203;53.686;9.994;2022-12-18T06:44:31;19.30;;;8.77;;
4377;SDS011;2203;53.686;9.994;2022-12-18T06:46:56;16.50;;;8.73;;
4377;SDS011;2203;53.686;9.994;2022-12-18T06:49:22;25.40;;;8.93;;
4377;SDS011;2203;53.686;9.994;2022-12-18T06:51:47;18.80;;;8.70;;
4377;SDS011;2203;53.686;9.994;2022-12-18T06:54:12;23.83;;;8.97;;
4377;SDS011;2203;53.686;9.994;2022-12-18T06:56:38;19.63;;;7.80;;
4377;SDS011;2203;53.686;9.994;2022-12-18T06:59:03;21.20;;;8.83;;
4377;SDS011;2203;53.686;9.994;2022-12-18T07:01:29;15.50;;;7.63;;
4377;SDS011;2203;53.686;9.994;2022-12-18T07:03:54;15.83;;;8.70;;
4377;SDS011;2203;53.686;9.994;2022-12-18T07:06:22;19.13;;;8.47;;
4377;SDS011;2203;53.686;9.994;2022-12-18T07:08:48;19.67;;;9.07;;
4377;SDS011;2203;53.686;9.994;2022-12-18T07:11:15;15.07;;;8.10;;
4377;SDS011;2203;53.686;9.994;2022-12-18T07:13:41;21.17;;;9.43;;
4377;SDS011;2203;53.686;9.994;2022-12-18T07:18:33;16.60;;;8.20;;
4377;SDS011;2203;53.686;9.994;2022-12-18T07:21:01;37.90;;;10.97;;
4377;SDS011;2203;53.686;9.994;2022-12-18T07:23:28;15.70;;;8.67;;
4377;SDS011;2203;53.686;9.994;2022-12-18T07:25:53;18.50;;;9.23;;
4377;SDS011;2203;53.686;9.994;2022-12-18T07:28:19;23.00;;;9.03;;
4377;SDS011;2203;53.686;9.994;2022-12-18T07:30:44;18.97;;;7.97;;
4377;SDS011;2203;53.686;9.994;2022-12-18T07:33:09;16.17;;;8.20;;
4377;SDS011;2203;53.686;9.994;2022-12-18T07:35:35;17.57;;;8.40;;
4377;SDS011;2203;53.686;9.994;2022-12-18T07:38:01;22.03;;;8.20;;
4377;SDS011;2203;53.686;9.994;2022-12-18T07:40:27;18.10;;;8.53;;
4377;SDS011;2203;53.686;9.994;2022-12-18T07:42:52;18.20;;;9.40;;
4377;SDS011;2203;53.686;9.994;2022-12-18T07:45:17;27.63;;;9.20;;
4377;SDS011;2203;53.686;9.994;2022-12-18T07:47:43;20.17;;;10.00;;
4377;SDS011;2203;53.686;9.994;2022-12-18T07:50:08;21.83;;;8.93;;
4377;SDS011;2203;53.686;9.994;2022-12-18T07:52:34;18.30;;;8.43;;
4377;SDS011;2203;53.686;9.994;2022-12-18T07:54:59;17.07;;;8.43;;
4377;SDS011;2203;53.686;9.994;2022-12-18T07:57:24;20.83;;;9.10;;
4377;SDS011;2203;53.686;9.994;2022-12-18T07:59:50;15.77;;;8.20;;
4377;SDS011;2203;53.686;9.994;2022-12-18T08:02:16;13.47;;;8.30;;
4377;SDS011;2203;53.686;9.994;2022-12-18T08:04:41;23.10;;;9.57;;
4377;SDS011;2203;53.686;9.994;2022-12-18T08:07:06;18.73;;;8.43;;
4377;SDS011;2203;53.686;9.994;2022-12-18T08:09:32;21.93;;;9.63;;
4377;SDS011;2203;53.686;9.994;2022-12-18T08:11:57;24.63;;;8.87;;
4377;SDS011;2203;53.686;9.994;2022-12-18T08:14:22;20.73;;;8.93;;
4377;SDS011;2203;53.686;9.994;2022-12-18T08:16:48;21.00;;;8.30;;
4377;SDS011;2203;53.686;9.994;2022-12-18T08:19:13;17.13;;;8.70;;
4377;SDS011;2203;53.686;9.994;2022-12-18T08:21:39;19.20;;;9.10;;
4377;SDS011;2203;53.686;9.994;2022-12-18T08:24:08;15.43;;;8.87;;
4377;SDS011;2203;53.686;9.994;2022-12-18T08:26:34;20.20;;;9.60;;
4377;SDS011;2203;53.686;9.994;2022-12-18T08:29:00;19.13;;;10.40;;
4377;SDS011;2203;53.686;9.994;2022-12-18T08:31:26;21.83;;;9.33;;
4377;SDS011;2203;53.686;9.994;2022-12-18T08:33:53;19.00;;;10.10;;
4377;SDS011;2203;53.686;9.994;2022-12-18T08:36:19;18.37;;;8.57;;
4377;SDS011;2203;53.686;9.994;2022-12-18T08:38:45;18.53;;;8.43;;
4377;SDS011;2203;53.686;9.994;2022-12-18T08:41:12;18.17;;;9.07;;
4377;SDS011;2203;53.686;9.994;2022-12-18T08:43:38;26.10;;;9.87;;
4377;SDS011;2203;53.686;9.994;2022-12-18T08:46:24;16.67;;;9.17;;
4377;SDS011;2203;53.686;9.994;2022-12-18T08:48:50;19.50;;;10.10;;
4377;SDS011;2203;53.686;9.994;2022-12-18T08:51:17;19.17;;;9.33;;
4377;SDS011;2203;53.686;9.994;2022-12-18T08:53:43;19.20;;;9.93;;
4377;SDS011;2203;53.686;9.994;2022-12-18T08:56:12;17.47;;;9.37;;
4377;SDS011;2203;53.686;9.994;2022-12-18T08:58:38;20.50;;;10.30;;
4377;SDS011;2203;53.686;9.994;2022-12-18T09:01:04;21.07;;;9.70;;
4377;SDS011;2203;53.686;9.994;2022-12-18T09:03:30;20.30;;;8.90;;
4377;SDS011;2203;53.686;9.994;2022-12-18T09:05:55;19.30;;;9.67;;
4377;SDS011;2203;53.686;9.994;2022-12-18T09:08:21;16.87;;;8.67;;
4377;SDS011;2203;53.686;9.994;2022-12-18T09:10:47;17.97;;;9.10;;
4377;SDS011;2203;53.686;9.994;2022-12-18T09:13:14;18.50;;;9.33;;
4377;SDS011;2203;53.686;9.994;2022-12-18T09:15:44;23.23;;;10.47;;
4377;SDS011;2203;53.686;9.994;2022-12-18T09:18:12;14.70;;;8.37;;
4377;SDS011;2203;53.686;9.994;2022-12-18T09:20:38;15.87;;;9.40;;
4377;SDS011;2203;53.686;9.994;2022-12-18T09:23:04;20.80;;;9.73;;
4377;SDS011;2203;53.686;9.994;2022-12-18T09:25:30;19.90;;;9.07;;
4377;SDS011;2203;53.686;9.994;2022-12-18T09:28:00;17.57;;;9.07;;
4377;SDS011;2203;53.686;9.994;2022-12-18T09:30:27;28.43;;;10.07;;
4377;SDS011;2203;53.686;9.994;2022-12-18T09:32:52;20.50;;;10.13;;
4377;SDS011;2203;53.686;9.994;2022-12-18T09:35:18;16.13;;;8.70;;
4377;SDS011;2203;53.686;9.994;2022-12-18T09:37:43;21.23;;;8.70;;
4377;SDS011;2203;53.686;9.994;2022-12-18T09:40:28;19.20;;;9.40;;
4377;SDS011;2203;53.686;9.994;2022-12-18T09:43:02;19.40;;;8.60;;
4377;SDS011;2203;53.686;9.994;2022-12-18T09:45:30;22.80;;;9.30;;
4377;SDS011;2203;53.686;9.994;2022-12-18T09:48:08;26.30;;;9.60;;
4377;SDS011;2203;53.686;9.994;2022-12-18T09:50:39;24.97;;;9.30;;
4377;SDS011;2203;53.686;9.994;2022-12-18T09:55:58;21.30;;;8.70;;
4377;SDS011;2203;53.686;9.994;2022-12-18T09:58:46;15.13;;;8.33;;
4377;SDS011;2203;53.686;9.994;2022-12-18T10:01:33;17.50;;;8.90;;
4377;SDS011;2203;53.686;9.994;2022-12-18T10:03:58;22.53;;;8.73;;
4377;SDS011;2203;53.686;9.994;2022-12-18T10:12:07;21.87;;;9.50;;
4377;SDS011;2203;53.686;9.994;2022-12-18T10:15:01;18.40;;;8.73;;
4377;SDS011;2203;53.686;9.994;2022-12-18T10:22:50;21.13;;;8.80;;
4377;SDS011;2203;53.686;9.994;2022-12-18T10:25:31;17.50;;;9.77;;
4377;SDS011;2203;53.686;9.994;2022-12-18T10:28:00;16.20;;;8.77;;
4377;SDS011;2203;53.686;9.994;2022-12-18T10:30:34;23.33;;;9.20;;
4377;SDS011;2203;53.686;9.994;2022-12-18T10:33:00;24.23;;;9.80;;
4377;SDS011;2203;53.686;9.994;2022-12-18T10:35:27;17.00;;;8.87;;
4377;SDS011;2203;53.686;9.994;2022-12-18T10:40:32;16.43;;;8.13;;
4377;SDS011;2203;53.686;9.994;2022-12-18T10:43:02;19.50;;;8.77;;
4377;SDS011;2203;53.686;9.994;2022-12-18T10:45:29;16.93;;;8.30;;
4377;SDS011;2203;53.686;9.994;2022-12-18T10:47:54;19.73;;;9.47;;
4377;SDS011;2203;53.686;9.994;2022-12-18T10:53:01;15.40;;;8.13;;
4377;SDS011;2203;53.686;9.994;2022-12-18T10:55:32;23.50;;;10.07;;
4377;SDS011;2203;53.686;9.994;2022-12-18T10:58:16;19.80;;;9.37;;
4377;SDS011;2203;53.686;9.994;2022-12-18T11:00:46;24.80;;;8.67;;
4377;SDS011;2203;53.686;9.994;2022-12-18T11:03:29;17.20;;;8.40;;
4377;SDS011;2203;53.686;9.994;2022-12-18T11:06:04;18.40;;;8.60;;
4377;SDS011;2203;53.686;9.994;2022-12-18T11:08:31;19.10;;;8.33;;
4377;SDS011;2203;53.686;9.994;2022-12-18T11:10:56;23.83;;;9.13;;
4377;SDS011;2203;53.686;9.994;2022-12-18T11:13:23;15.30;;;7.93;;
4377;SDS011;2203;53.686;9.994;2022-12-18T11:15:50;19.90;;;8.67;;
4377;SDS011;2203;53.686;9.994;2022-12-18T11:18:29;18.07;;;9.47;;
4377;SDS011;2203;53.686;9.994;2022-12-18T11:20:58;22.83;;;9.90;;
4377;SDS011;2203;53.686;9.994;2022-12-18T11:23:25;18.53;;;7.90;;
4377;SDS011;2203;53.686;9.994;2022-12-18T11:25:52;22.10;;;10.80;;
4377;SDS011;2203;53.686;9.994;2022-12-18T11:33:54;22.50;;;8.83;;
4377;SDS011;2203;53.686;9.994;2022-12-18T11:36:21;16.60;;;9.07;;
4377;SDS011;2203;53.686;9.994;2022-12-18T11:38:47;22.20;;;9.47;;
4377;SDS011;2203;53.686;9.994;2022-12-18T11:44:29;20.67;;;8.47;;
4377;SDS011;2203;53.686;9.994;2022-12-18T11:49:45;18.50;;;10.00;;
4377;SDS011;2203;53.686;9.994;2022-12-18T11:52:18;15.47;;;6.90;;
4377;SDS011;2203;53.686;9.994;2022-12-18T11:54:46;20.00;;;8.70;;
4377;SDS011;2203;53.686;9.994;2022-12-18T12:00:11;19.77;;;9.43;;
4377;SDS011;2203;53.686;9.994;2022-12-18T12:07:47;17.90;;;8.93;;
4377;SDS011;2203;53.686;9.994;2022-12-18T12:19:04;24.43;;;10.53;;
4377;SDS011;2203;53.686;9.994;2022-12-18T12:22:11;19.60;;;9.90;;
4377;SDS011;2203;53.686;9.994;2022-12-18T12:24:46;23.60;;;11.00;;
4377;SDS011;2203;53.686;9.994;2022-12-18T12:30:22;18.50;;;9.47;;
4377;SDS011;2203;53.686;9.994;2022-12-18T12:38:37;24.87;;;10.30;;
4377;SDS011;2203;53.686;9.994;2022-12-18T12:41:09;21.77;;;10.17;;
4377;SDS011;2203;53.686;9.994;2022-12-18T12:43:57;21.50;;;9.83;;
4377;SDS011;2203;53.686;9.994;2022-12-18T12:46:23;23.70;;;9.60;;
4377;SDS011;2203;53.686;9.994;2022-12-18T12:48:58;17.80;;;8.20;;
4377;SDS011;2203;53.686;9.994;2022-12-18T12:53:56;17.60;;;8.93;;
4377;SDS011;2203;53.686;9.994;2022-12-18T12:56:22;16.37;;;8.30;;
4377;SDS011;2203;53.686;9.994;2022-12-18T13:04:30;25.40;;;10.70;;
4377;SDS011;2203;53.686;9.994;2022-12-18T13:09:31;20.40;;;9.30;;
4377;SDS011;2203;53.686;9.994;2022-12-18T13:12:01;21.27;;;9.50;;
4377;SDS011;2203;53.686;9.994;2022-12-18T13:14:50;20.50;;;9.77;;
4377;SDS011;2203;53.686;9.994;2022-12-18T13:19:47;21.43;;;10.20;;
4377;SDS011;2203;53.686;9.994;2022-12-18T13:24:50;23.33;;;11.03;;
4377;SDS011;2203;53.686;9.994;2022-12-18T13:35:41;21.30;;;9.87;;
4377;SDS011;2203;53.686;9.994;2022-12-18T13:38:45;24.53;;;10.50;;
4377;SDS011;2203;53.686;9.994;2022-12-18T13:43:47;19.33;;;8.00;;
4377;SDS011;2203;53.686;9.994;2022-12-18T13:48:56;22.93;;;10.03;;
4377;SDS011;2203;53.686;9.994;2022-12-18T13:51:23;24.03;;;10.30;;
4377;SDS011;2203;53.686;9.994;2022-12-18T13:53:51;27.37;;;11.70;;
4377;SDS011;2203;53.686;9.994;2022-12-18T13:56:21;20.37;;;9.90;;
4377;SDS011;2203;53.686;9.994;2022-12-18T14:01:41;28.07;;;13.97;;
4377;SDS011;2203;53.686;9.994;2022-12-18T14:04:28;31.63;;;15.57;;
4377;SDS011;2203;53.686;9.994;2022-12-18T14:09:43;32.73;;;14.40;;
4377;SDS011;2203;53.686;9.994;2022-12-18T14:12:21;27.63;;;13.27;;
4377;SDS011;2203;53.686;9.994;2022-12-18T14:15:16;34.67;;;15.20;;
4377;SDS011;2203;53.686;9.994;2022-12-18T14:17:49;35.33;;;14.83;;
4377;SDS011;2203;53.686;9.994;2022-12-18T14:20:15;31.77;;;13.50;;
4377;SDS011;2203;53.686;9.994;2022-12-18T14:22:47;35.77;;;15.13;;
4377;SDS011;2203;53.686;9.994;2022-12-18T14:25:23;40.70;;;17.17;;
4377;SDS011;2203;53.686;9.994;2022-12-18T14:27:51;39.60;;;15.17;;
4377;SDS011;2203;53.686;9.994;2022-12-18T14:30:36;32.00;;;13.73;;
4377;SDS011;2203;53.686;9.994;2022-12-18T14:33:09;28.27;;;13.50;;
4377;SDS011;2203;53.686;9.994;2022-12-18T14:36:01;31.20;;;13.57;;
4377;SDS011;2203;53.686;9.994;2022-12-18T14:38:33;39.70;;;15.63;;
4377;SDS011;2203;53.686;9.994;2022-12-18T14:41:05;38.00;;;14.70;;
4377;SDS011;2203;53.686;9.994;2022-12-18T14:43:35;40.87;;;14.40;;
4377;SDS011;2203;53.686;9.994;2022-12-18T14:46:02;33.87;;;14.50;;
4377;SDS011;2203;53.686;9.994;2022-12-18T14:53:42;35.20;;;14.67;;
4377;SDS011;2203;53.686;9.994;2022-12-18T14:59:01;37.80;;;15.13;;
4377;SDS011;2203;53.686;9.994;2022-12-18T15:01:35;34.23;;;13.73;;
4377;SDS011;2203;53.686;9.994;2022-12-18T15:04:03;32.50;;;13.40;;
4377;SDS011;2203;53.686;9.994;2022-12-18T15:08:56;36.30;;;15.30;;
4377;SDS011;2203;53.686;9.994;2022-12-18T15:11:45;36.50;;;14.30;;
4377;SDS011;2203;53.686;9.994;2022-12-18T15:16:55;43.10;;;17.00;;
4377;SDS011;2203;53.686;9.994;2022-12-18T15:19:21;37.70;;;14.83;;
4377;SDS011;2203;53.686;9.994;2022-12-18T15:21:47;37.00;;;15.93;;
4377;SDS011;2203;53.686;9.994;2022-12-18T15:24:24;38.73;;;15.13;;
4377;SDS011;2203;53.686;9.994;2022-12-18T15:26:55;39.93;;;15.23;;
4377;SDS011;2203;53.686;9.994;2022-12-18T15:29:21;41.97;;;16.30;;
4377;SDS011;2203;53.686;9.994;2022-12-18T15:32:03;46.93;;;17.43;;
4377;SDS011;2203;53.686;9.994;2022-12-18T15:34:30;31.00;;;13.80;;
4377;SDS011;2203;53.686;9.994;2022-12-18T15:36:56;44.40;;;16.87;;
4377;SDS011;2203;53.686;9.994;2022-12-18T15:39:22;41.47;;;16.70;;
4377;SDS011;2203;53.686;9.994;2022-12-18T15:41:48;51.60;;;18.17;;
4377;SDS011;2203;53.686;9.994;2022-12-18T15:44:31;45.00;;;18.00;;
4377;SDS011;2203;53.686;9.994;2022-12-18T15:46:57;35.90;;;15.17;;
4377;SDS011;2203;53.686;9.994;2022-12-18T15:49:23;37.00;;;14.87;;
4377;SDS011;2203;53.686;9.994;2022-12-18T15:51:50;46.53;;;16.57;;
4377;SDS011;2203;53.686;9.994;2022-12-18T15:54:17;40.27;;;15.70;;
4377;SDS011;2203;53.686;9.994;2022-12-18T15:57:12;36.70;;;15.70;;
4377;SDS011;2203;53.686;9.994;2022-12-18T15:59:54;41.57;;;16.97;;
4377;SDS011;2203;53.686;9.994;2022-12-18T16:02:23;44.67;;;16.67;;
4377;SDS011;2203;53.686;9.994;2022-12-18T16:04:49;37.50;;;16.50;;
4377;SDS011;2203;53.686;9.994;2022-12-18T16:07:16;37.07;;;15.43;;
4377;SDS011;2203;53.686;9.994;2022-12-18T16:09:42;37.13;;;16.17;;
4377;SDS011;2203;53.686;9.994;2022-12-18T16:12:18;41.37;;;16.50;;
4377;SDS011;2203;53.686;9.994;2022-12-18T16:14:45;45.50;;;17.10;;
4377;SDS011;2203;53.686;9.994;2022-12-18T16:17:11;45.67;;;17.17;;
4377;SDS011;2203;53.686;9.994;2022-12-18T16:19:37;50.50;;;17.83;;
4377;SDS011;2203;53.686;9.994;2022-12-18T16:22:03;39.40;;;16.73;;
4377;SDS011;2203;53.686;9.994;2022-12-18T16:24:29;50.90;;;19.10;;
4377;SDS011;2203;53.686;9.994;2022-12-18T16:26:59;43.83;;;15.30;;
4377;SDS011;2203;53.686;9.994;2022-12-18T16:29:25;49.53;;;18.73;;
4377;SDS011;2203;53.686;9.994;2022-12-18T16:31:52;45.50;;;17.40;;
4377;SDS011;2203;53.686;9.994;2022-12-18T16:34:19;48.30;;;19.20;;
4377;SDS011;2203;53.686;9.994;2022-12-18T16:36:51;48.20;;;19.40;;
4377;SDS011;2203;53.686;9.994;2022-12-18T16:39:18;51.83;;;18.67;;
4377;SDS011;2203;53.686;9.994;2022-12-18T16:41:44;52.20;;;19.87;;
4377;SDS011;2203;53.686;9.994;2022-12-18T16:44:10;52.63;;;19.27;;
4377;SDS011;2203;53.686;9.994;2022-12-18T16:46:35;48.50;;;17.70;;
4377;SDS011;2203;53.686;9.994;2022-12-18T16:49:02;47.00;;;18.63;;
4377;SDS011;2203;53.686;9.994;2022-12-18T16:51:28;43.10;;;16.50;;
4377;SDS011;2203;53.686;9.994;2022-12-18T16:53:54;44.50;;;17.87;;
4377;SDS011;2203;53.686;9.994;2022-12-18T16:56:20;52.47;;;18.07;;
4377;SDS011;2203;53.686;9.994;2022-12-18T16:58:55;47.53;;;17.57;;
4377;SDS011;2203;53.686;9.994;2022-12-18T17:01:21;40.60;;;16.40;;
4377;SDS011;2203;53.686;9.994;2022-12-18T17:03:54;50.33;;;19.03;;
4377;SDS011;2203;53.686;9.994;2022-12-18T17:06:21;40.30;;;17.40;;
4377;SDS011;2203;53.686;9.994;2022-12-18T17:08:47;46.40;;;17.27;;